createdAt,value
2018-03-17T00:00:27.047Z,5.63
2018-03-17T00:02:58.756Z,6.73
2018-03-17T00:05:28.530Z,5.90
2018-03-17T00:08:24.403Z,7.13
2018-03-17T00:10:58.771Z,8.53
2018-03-17T00:13:29.735Z,8.07
2018-03-17T00:16:11.690Z,7.33
2018-03-17T00:18:41.823Z,6.60
2018-03-17T00:21:14.828Z,7.47
2018-03-17T00:23:45.276Z,5.67
2018-03-17T00:26:18.083Z,6.40
2018-03-17T00:29:01.452Z,7.17
2018-03-17T00:31:33.716Z,4.90
2018-03-17T00:34:18.650Z,6.63
2018-03-17T00:37:00.052Z,3.93
2018-03-17T00:39:33.698Z,8.27
2018-03-17T00:42:03.760Z,5.43
2018-03-17T00:44:43.398Z,6.80
2018-03-17T00:47:19.077Z,8.23
2018-03-17T00:49:49.660Z,4.87
2018-03-17T00:52:27.692Z,4.63
2018-03-17T00:55:08.892Z,5.10
2018-03-17T00:57:41.371Z,4.87
2018-03-17T01:00:32.059Z,6.90
2018-03-17T01:03:18.630Z,6.60
2018-03-17T01:06:01.841Z,6.97
2018-03-17T01:08:46.572Z,7.30
2018-03-17T01:11:18.103Z,7.63
2018-03-17T01:13:52.785Z,6.77
2018-03-17T01:16:26.678Z,9.40
2018-03-17T01:19:01.545Z,10.53
2018-03-17T01:21:31.304Z,7.23
2018-03-17T01:24:19.046Z,11.70
2018-03-17T01:26:59.489Z,16.03
2018-03-17T01:29:38.673Z,13.50
2018-03-17T01:32:08.934Z,11.27
2018-03-17T01:34:42.067Z,9.60
2018-03-17T01:37:16.320Z,15.17
2018-03-17T01:40:00.331Z,14.20
2018-03-17T01:42:44.213Z,12.77
2018-03-17T01:45:26.456Z,11.63
2018-03-17T01:47:58.970Z,12.57
2018-03-17T01:50:32.314Z,14.43
2018-03-17T01:53:19.598Z,12.47
2018-03-17T01:55:51.727Z,12.43
2018-03-17T01:58:22.610Z,12.50
2018-03-17T02:00:56.921Z,9.47
2018-03-17T02:03:31.527Z,13.43
2018-03-17T02:06:04.732Z,12.80
2018-03-17T02:08:38.737Z,11.90
2018-03-17T02:11:18.535Z,12.73
2018-03-17T02:14:07.152Z,9.50
2018-03-17T02:16:49.110Z,11.23
2018-03-17T02:19:21.305Z,16.20
2018-03-17T02:22:10.333Z,12.33
2018-03-17T02:25:02.932Z,11.57
2018-03-17T02:27:50.503Z,12.77
2018-03-17T02:30:26.729Z,12.90
2018-03-17T02:33:06.810Z,13.57
2018-03-17T02:35:37.573Z,14.80
2018-03-17T02:38:22.401Z,14.83
2018-03-17T02:40:56.162Z,12.07
2018-03-17T02:43:26.261Z,12.00
2018-03-17T02:45:59.434Z,10.03
2018-03-17T02:48:38.806Z,14.00
2018-03-17T02:51:09.630Z,11.50
2018-03-17T02:53:40.355Z,11.33
2018-03-17T02:56:26.797Z,9.53
2018-03-17T02:59:01.844Z,9.50
2018-03-17T03:01:39.126Z,9.70
2018-03-17T03:04:21.316Z,14.57
2018-03-17T03:06:51.052Z,8.80
2018-03-17T03:09:21.494Z,9.57
2018-03-17T03:14:56.469Z,11.60
2018-03-17T03:17:30.600Z,10.47
2018-03-17T03:20:01.893Z,9.63
2018-03-17T03:22:37.339Z,17.87
2018-03-17T03:25:08.581Z,13.27
2018-03-17T03:27:52.884Z,12.87
2018-03-17T03:30:29.535Z,14.03
2018-03-17T03:33:00.557Z,15.90
2018-03-17T03:35:31.204Z,13.80
2018-03-17T03:38:06.693Z,10.63
2018-03-17T03:40:38.775Z,13.40
2018-03-17T03:43:16.133Z,14.37
2018-03-17T03:45:48.026Z,14.17
2018-03-17T03:48:32.810Z,21.67
2018-03-17T03:51:11.278Z,17.60
2018-03-17T03:53:42.274Z,15.87
2018-03-17T03:56:23.926Z,14.83
2018-03-17T03:58:56.740Z,13.93
2018-03-17T04:01:30.159Z,8.87
2018-03-17T04:04:00.591Z,11.47
2018-03-17T04:06:33.233Z,11.43
2018-03-17T04:09:04.176Z,14.40
2018-03-17T04:11:35.229Z,13.53
2018-03-17T04:14:09.663Z,11.40
2018-03-17T04:16:42.568Z,12.27
2018-03-17T04:19:25.557Z,10.63
2018-03-17T04:21:56.196Z,12.10
2018-03-17T04:24:33.189Z,13.07
2018-03-17T04:27:07.688Z,10.40
2018-03-17T04:29:37.545Z,11.17
2018-03-17T04:32:27.172Z,9.77
2018-03-17T04:35:14.671Z,12.33
2018-03-17T04:37:59.333Z,10.50
2018-03-17T04:40:32.993Z,11.83
2018-03-17T04:43:07.344Z,8.17
2018-03-17T04:45:40.824Z,8.37
2018-03-17T04:48:14.512Z,11.43
2018-03-17T04:51:02.830Z,13.23
2018-03-17T04:53:42.659Z,12.10
2018-03-17T04:56:14.732Z,12.10
2018-03-17T04:58:47.755Z,8.10
2018-03-17T05:01:17.591Z,8.77
2018-03-17T05:03:47.814Z,8.03
2018-03-17T05:06:24.367Z,9.30
2018-03-17T05:08:55.308Z,9.00
2018-03-17T05:11:25.019Z,9.07
2018-03-17T05:13:54.595Z,9.43
2018-03-17T05:16:24.256Z,5.27
2018-03-17T05:18:55.350Z,9.03
2018-03-17T05:21:24.814Z,12.40
2018-03-17T05:23:55.408Z,8.43
2018-03-17T05:26:25.047Z,11.67
2018-03-17T05:28:54.662Z,11.97
2018-03-17T05:31:24.533Z,13.03
2018-03-17T05:33:54.198Z,13.43
2018-03-17T05:36:24.488Z,16.93
2018-03-17T05:38:54.144Z,12.73
2018-03-17T05:41:24.468Z,12.60
2018-03-17T05:43:54.777Z,14.83
2018-03-17T05:46:25.160Z,11.50
2018-03-17T05:48:55.403Z,11.77
2018-03-17T05:51:25.085Z,13.43
2018-03-17T05:53:54.741Z,11.67
2018-03-17T05:56:24.290Z,11.17
2018-03-17T05:58:53.933Z,10.43
2018-03-17T06:01:23.546Z,5.50
2018-03-17T06:03:53.332Z,4.30
2018-03-17T06:06:22.873Z,8.03
2018-03-17T06:08:53.165Z,8.47
2018-03-17T06:11:22.884Z,5.63
2018-03-17T06:13:53.402Z,7.83
2018-03-17T06:16:23.173Z,7.50
2018-03-17T06:18:53.618Z,7.87
2018-03-17T06:21:23.797Z,8.70
2018-03-17T06:23:54.175Z,5.00
2018-03-17T06:26:23.651Z,6.87
2018-03-17T06:28:54.020Z,5.07
2018-03-17T06:31:23.537Z,8.57
2018-03-17T06:33:53.121Z,7.63
2018-03-17T06:36:22.888Z,11.70
2018-03-17T06:38:52.573Z,10.10
2018-03-17T06:41:22.430Z,8.33
2018-03-17T06:43:52.316Z,7.77
2018-03-17T06:46:21.966Z,7.93
2018-03-17T06:48:51.614Z,8.00
2018-03-17T06:51:22.356Z,9.77
2018-03-17T06:53:52.959Z,10.97
2018-03-17T06:56:22.500Z,12.30
2018-03-17T06:58:52.193Z,8.03
2018-03-17T07:01:21.846Z,7.67
2018-03-17T07:03:52.312Z,6.20
2018-03-17T07:06:21.931Z,9.27
2018-03-17T07:08:52.048Z,9.57
2018-03-17T07:11:22.188Z,6.57
2018-03-17T07:13:51.903Z,8.93
2018-03-17T07:16:21.456Z,7.20
2018-03-17T07:18:51.832Z,14.00
2018-03-17T07:21:21.512Z,8.90
2018-03-17T07:23:51.097Z,6.50
2018-03-17T07:26:21.557Z,6.73
2018-03-17T07:28:51.279Z,5.53
2018-03-17T07:31:21.547Z,4.07
2018-03-17T07:33:51.279Z,3.47
2018-03-17T07:36:22.100Z,4.30
2018-03-17T07:38:52.882Z,6.77
2018-03-17T07:41:23.086Z,5.57
2018-03-17T07:43:52.915Z,4.17
2018-03-17T07:46:23.919Z,6.40
2018-03-17T07:48:55.273Z,7.27
2018-03-17T07:51:27.818Z,5.90
2018-03-17T07:53:57.709Z,3.83
2018-03-17T07:56:29.142Z,3.93
2018-03-17T07:58:58.781Z,5.20
2018-03-17T08:01:28.421Z,4.87
2018-03-17T08:03:58.737Z,3.77
2018-03-17T08:06:28.330Z,4.77
2018-03-17T08:08:58.057Z,6.07
2018-03-17T08:11:28.887Z,6.03
2018-03-17T08:13:58.591Z,3.60
2018-03-17T08:16:29.057Z,4.17
2018-03-17T08:18:59.111Z,5.13
2018-03-17T08:21:29.747Z,5.67
2018-03-17T08:24:05.431Z,3.40
2018-03-17T08:26:36.046Z,4.07
2018-03-17T08:29:06.105Z,4.07
2018-03-17T08:31:35.922Z,5.90
2018-03-17T08:34:06.334Z,5.13
2018-03-17T08:36:38.217Z,4.67
2018-03-17T08:39:08.174Z,4.33
2018-03-17T08:41:37.829Z,3.73
2018-03-17T08:44:08.271Z,2.93
2018-03-17T08:46:38.089Z,2.37
2018-03-17T08:49:07.823Z,3.33
2018-03-17T08:51:38.298Z,1.80
2018-03-17T08:54:10.921Z,2.23
2018-03-17T08:56:41.190Z,1.77
2018-03-17T08:59:12.267Z,2.50
2018-03-17T09:01:41.842Z,3.33
2018-03-17T09:04:12.436Z,2.27
2018-03-17T09:06:43.120Z,2.40
2018-03-17T09:09:13.473Z,1.97
2018-03-17T09:11:43.163Z,2.20
2018-03-17T09:14:13.632Z,2.50
2018-03-17T09:16:44.523Z,3.23
2018-03-17T09:19:15.639Z,2.27
2018-03-17T09:21:46.554Z,3.63
2018-03-17T09:24:16.722Z,2.30
2018-03-17T09:26:46.696Z,4.20
2018-03-17T09:29:23.328Z,2.87
2018-03-17T09:31:53.373Z,3.60
2018-03-17T09:34:23.616Z,4.23
2018-03-17T09:36:54.701Z,2.37
2018-03-17T09:39:25.186Z,1.60
2018-03-17T09:41:55.913Z,2.13
2018-03-17T09:44:26.811Z,3.13
2018-03-17T09:46:57.475Z,2.40
2018-03-17T09:49:27.971Z,2.60
2018-03-17T09:51:58.265Z,4.37
2018-03-17T09:54:29.916Z,7.27
2018-03-17T09:57:01.677Z,2.57
2018-03-17T09:59:31.305Z,3.17
2018-03-17T10:02:02.202Z,2.73
2018-03-17T10:04:31.876Z,2.13
2018-03-17T10:07:02.753Z,3.07
2018-03-17T10:09:32.502Z,3.53
2018-03-17T10:12:02.269Z,3.33
2018-03-17T10:14:32.082Z,1.60
2018-03-17T10:17:02.209Z,2.57
2018-03-17T10:19:31.729Z,2.47
2018-03-17T10:22:01.638Z,2.13
2018-03-17T10:24:31.554Z,5.43
2018-03-17T10:27:01.463Z,3.37
2018-03-17T10:29:31.178Z,2.00
2018-03-17T10:32:00.851Z,2.60
2018-03-17T10:34:30.475Z,2.43
2018-03-17T10:36:59.979Z,3.23
2018-03-17T10:39:29.610Z,5.10
2018-03-17T10:41:59.594Z,2.33
2018-03-17T10:44:31.401Z,1.93
2018-03-17T10:47:01.249Z,2.17
2018-03-17T10:49:31.587Z,3.33
2018-03-17T10:52:01.085Z,3.57
2018-03-17T10:54:30.798Z,2.53
2018-03-17T10:57:00.434Z,3.60
2018-03-17T10:59:30.253Z,1.47
2018-03-17T11:02:05.686Z,2.50
2018-03-17T11:04:42.084Z,3.27
2018-03-17T11:07:13.489Z,1.80
2018-03-17T11:09:42.993Z,4.30
2018-03-17T11:12:14.835Z,3.30
2018-03-17T11:14:44.509Z,3.27
2018-03-17T11:17:14.337Z,1.70
2018-03-17T11:19:44.251Z,2.03
2018-03-17T11:22:14.461Z,2.70
2018-03-17T11:24:44.979Z,3.53
2018-03-17T11:27:17.072Z,4.27
2018-03-17T11:29:47.537Z,17.00
2018-03-17T11:32:17.389Z,12.07
2018-03-17T11:34:47.325Z,2.73
2018-03-17T11:37:20.510Z,12.20
2018-03-17T11:39:50.774Z,7.63
2018-03-17T11:45:40.470Z,3.00
2018-03-17T11:48:10.329Z,2.30
2018-03-17T11:50:40.731Z,1.80
2018-03-17T11:53:10.600Z,2.30
2018-03-17T11:55:42.739Z,4.30
2018-03-17T11:58:19.477Z,1.90
2018-03-17T12:00:49.527Z,1.57
2018-03-17T12:03:19.520Z,2.17
2018-03-17T12:05:50.248Z,1.53
2018-03-17T12:08:20.214Z,1.60
2018-03-17T12:10:49.779Z,1.47
2018-03-17T12:13:19.731Z,2.70
2018-03-17T12:15:50.417Z,2.07
2018-03-17T12:18:21.833Z,5.23
2018-03-17T12:20:51.516Z,7.10
2018-03-17T12:23:21.119Z,5.80
2018-03-17T12:25:53.339Z,1.23
2018-03-17T12:28:23.833Z,2.50
2018-03-17T12:30:53.638Z,6.83
2018-03-17T12:33:23.168Z,2.33
2018-03-17T12:35:53.364Z,3.63
2018-03-17T12:38:23.285Z,2.50
2018-03-17T12:40:52.964Z,3.47
2018-03-17T12:43:23.320Z,3.47
2018-03-17T12:45:52.976Z,3.63
2018-03-17T12:48:23.668Z,3.00
2018-03-17T12:54:17.483Z,1.60
2018-03-17T12:56:47.076Z,2.27
2018-03-17T12:59:17.813Z,1.90
2018-03-17T13:01:49.019Z,2.27
2018-03-17T13:04:18.862Z,1.57
2018-03-17T13:06:48.459Z,4.17
2018-03-17T13:09:18.178Z,2.77
2018-03-17T13:11:48.490Z,4.00
2018-03-17T13:14:18.593Z,1.73
2018-03-17T13:16:48.947Z,2.77
2018-03-17T13:19:34.525Z,2.37
2018-03-17T13:22:05.297Z,1.70
2018-03-17T13:24:36.216Z,2.60
2018-03-17T13:27:23.961Z,3.47
2018-03-17T13:29:54.756Z,1.13
2018-03-17T13:32:42.399Z,1.70
2018-03-17T13:35:12.074Z,1.77
2018-03-17T13:37:41.817Z,1.57
2018-03-17T13:40:29.348Z,3.13
2018-03-17T13:42:59.360Z,1.87
2018-03-17T13:45:30.077Z,1.50
2018-03-17T13:47:59.863Z,1.13
2018-03-17T13:50:30.312Z,2.50
2018-03-17T13:53:00.221Z,0.83
2018-03-17T13:55:29.858Z,1.10
2018-03-17T13:58:00.329Z,1.93
2018-03-17T14:00:39.573Z,1.73
2018-03-17T14:03:11.375Z,0.73
2018-03-17T14:05:41.935Z,2.03
2018-03-17T14:08:12.983Z,0.70
2018-03-17T14:10:45.801Z,2.20
2018-03-17T14:13:16.487Z,10.83
2018-03-17T14:15:47.490Z,2.70
2018-03-17T14:18:17.448Z,3.27
2018-03-17T14:20:48.254Z,2.60
2018-03-17T14:23:19.930Z,4.17
2018-03-17T14:25:49.940Z,1.80
2018-03-17T14:28:20.156Z,2.53
2018-03-17T14:30:55.962Z,2.93
2018-03-17T14:33:26.656Z,3.10
2018-03-17T14:35:57.279Z,2.90
2018-03-17T14:38:27.968Z,1.80
2018-03-17T14:40:59.134Z,1.60
2018-03-17T14:43:29.791Z,2.57
2018-03-17T14:46:00.048Z,2.10
2018-03-17T14:48:30.537Z,3.50
2018-03-17T14:51:02.654Z,3.03
2018-03-17T14:53:33.097Z,1.83
2018-03-17T14:56:03.119Z,3.00
2018-03-17T14:58:33.537Z,2.07
2018-03-17T15:01:04.582Z,0.97
2018-03-17T15:03:37.167Z,1.97
2018-03-17T15:06:12.601Z,2.03
2018-03-17T15:08:42.574Z,2.30
2018-03-17T15:11:12.682Z,1.77
2018-03-17T15:13:43.388Z,1.43
2018-03-17T15:16:14.881Z,1.20
2018-03-17T15:18:46.121Z,1.70
2018-03-17T15:21:16.112Z,2.73
2018-03-17T15:23:46.381Z,3.33
2018-03-17T15:26:17.482Z,1.50
2018-03-17T15:28:47.874Z,1.90
2018-03-17T15:31:20.381Z,1.60
2018-03-17T15:33:50.256Z,1.53
2018-03-17T15:36:20.641Z,3.53
2018-03-17T15:38:51.199Z,6.57
2018-03-17T15:41:22.639Z,5.70
2018-03-17T15:43:53.886Z,5.27
2018-03-17T15:46:24.093Z,14.03
2018-03-17T15:48:54.004Z,2.00
2018-03-17T15:51:24.514Z,2.97
2018-03-17T15:53:54.218Z,3.30
2018-03-17T15:56:25.613Z,2.93
2018-03-17T15:58:56.358Z,3.37
2018-03-17T16:01:26.044Z,5.23
2018-03-17T16:03:55.647Z,2.97
2018-03-17T16:06:25.563Z,5.83
2018-03-17T16:08:57.042Z,3.80
2018-03-17T16:11:26.573Z,9.70
2018-03-17T16:13:56.849Z,4.40
2018-03-17T16:16:27.386Z,3.90
2018-03-17T16:18:56.860Z,2.80
2018-03-17T16:21:26.677Z,4.13
2018-03-17T16:23:57.474Z,4.30
2018-03-17T16:26:29.964Z,9.93
2018-03-17T16:29:00.452Z,10.90
2018-03-17T16:31:30.135Z,15.37
2018-03-17T16:33:59.695Z,12.70
2018-03-17T16:36:29.271Z,6.73
2018-03-17T16:38:59.087Z,2.33
2018-03-17T16:41:30.766Z,2.77
2018-03-17T16:44:14.946Z,3.40
2018-03-17T16:46:45.304Z,5.90
2018-03-17T16:49:14.777Z,4.63
2018-03-17T16:51:44.567Z,3.67
2018-03-17T16:54:14.189Z,4.20
2018-03-17T16:56:46.058Z,37.77
2018-03-17T16:59:17.709Z,6.23
2018-03-17T17:01:49.628Z,3.40
2018-03-17T17:04:19.374Z,4.63
2018-03-17T17:06:49.967Z,2.80
2018-03-17T17:09:20.604Z,5.70
2018-03-17T17:11:50.223Z,5.50
2018-03-17T17:14:21.159Z,3.23
2018-03-17T17:16:51.164Z,4.20
2018-03-17T17:19:20.821Z,3.53
2018-03-17T17:21:51.399Z,2.73
2018-03-17T17:24:22.036Z,4.27
2018-03-17T17:26:53.488Z,9.13
2018-03-17T17:29:25.703Z,9.10
2018-03-17T17:31:58.021Z,6.37
2018-03-17T17:34:27.566Z,3.80
2018-03-17T17:36:57.301Z,2.03
2018-03-17T17:39:27.402Z,1.53
2018-03-17T17:41:57.884Z,8.37
2018-03-17T17:44:27.481Z,2.60
2018-03-17T17:46:57.098Z,4.47
2018-03-17T17:49:26.921Z,12.60
2018-03-17T17:51:56.485Z,7.87
2018-03-17T17:54:29.166Z,10.03
2018-03-17T17:57:00.398Z,4.87
2018-03-17T17:59:30.887Z,1.53
2018-03-17T18:02:00.810Z,8.07
2018-03-17T18:04:30.934Z,7.30
2018-03-17T18:07:00.734Z,3.83
2018-03-17T18:09:31.788Z,3.83
2018-03-17T18:12:01.629Z,3.17
2018-03-17T18:14:31.529Z,4.37
2018-03-17T18:17:02.024Z,3.53
2018-03-17T18:19:32.100Z,19.93
2018-03-17T18:22:02.224Z,23.07
2018-03-17T18:24:33.135Z,8.17
2018-03-17T18:27:03.768Z,13.37
2018-03-17T18:29:34.533Z,4.90
2018-03-17T18:32:05.560Z,3.37
2018-03-17T18:34:36.286Z,4.43
2018-03-17T18:37:06.229Z,3.03
2018-03-17T18:39:36.817Z,5.60
2018-03-17T18:42:06.609Z,5.47
2018-03-17T18:44:37.528Z,5.13
2018-03-17T18:47:08.368Z,5.03
2018-03-17T18:49:38.269Z,3.43
2018-03-17T18:52:07.907Z,5.17
2018-03-17T18:54:37.565Z,4.00
2018-03-17T18:57:08.173Z,5.60
2018-03-17T18:59:37.958Z,5.30
2018-03-17T19:02:07.893Z,4.20
2018-03-17T19:04:37.420Z,9.20
2018-03-17T19:07:07.164Z,2.57
2018-03-17T19:09:37.605Z,5.53
2018-03-17T19:12:07.239Z,4.00
2018-03-17T19:14:36.870Z,4.77
2018-03-17T19:17:06.445Z,3.47
2018-03-17T19:19:36.092Z,2.63
2018-03-17T19:22:05.566Z,2.87
2018-03-17T19:24:35.091Z,4.30
2018-03-17T19:27:05.270Z,1.93
2018-03-17T19:29:35.819Z,3.53
2018-03-17T19:32:05.303Z,3.53
2018-03-17T19:34:35.840Z,2.97
2018-03-17T19:37:05.586Z,2.10
2018-03-17T19:39:35.088Z,3.40
2018-03-17T19:42:04.807Z,3.63
2018-03-17T19:44:35.487Z,3.17
2018-03-17T19:47:05.240Z,4.00
2018-03-17T19:49:34.852Z,3.93
2018-03-17T19:52:05.550Z,7.17
2018-03-17T19:54:36.021Z,5.83
2018-03-17T19:57:12.039Z,2.73
2018-03-17T19:59:49.984Z,5.80
2018-03-17T20:02:20.548Z,5.47
2018-03-17T20:04:50.828Z,9.33
2018-03-17T20:07:21.968Z,3.33
2018-03-17T20:09:53.168Z,4.27
2018-03-17T20:12:24.524Z,3.67
2018-03-17T20:14:55.545Z,2.60
2018-03-17T20:17:26.790Z,8.90
2018-03-17T20:19:56.972Z,13.57
2018-03-17T20:22:26.590Z,5.33
2018-03-17T20:25:12.892Z,5.47
2018-03-17T20:27:47.149Z,5.63
2018-03-17T20:30:17.427Z,3.00
2018-03-17T20:32:47.796Z,2.60
2018-03-17T20:35:19.918Z,2.70
2018-03-17T20:37:49.629Z,2.90
2018-03-17T20:40:19.638Z,3.10
2018-03-17T20:42:49.623Z,5.47
2018-03-17T20:45:21.944Z,2.70
2018-03-17T20:47:51.858Z,2.60
2018-03-17T20:50:21.630Z,6.97
2018-03-17T20:52:51.539Z,5.63
2018-03-17T20:55:22.722Z,4.33
2018-03-17T20:57:52.297Z,3.87
2018-03-17T21:00:21.904Z,3.27
2018-03-17T21:02:53.413Z,5.43
2018-03-17T21:05:29.064Z,3.20
2018-03-17T21:08:05.342Z,3.17
2018-03-17T21:10:35.314Z,3.43
2018-03-17T21:13:04.888Z,3.93
2018-03-17T21:15:35.347Z,2.50
2018-03-17T21:18:05.033Z,1.87
2018-03-17T21:20:35.431Z,3.20
2018-03-17T21:23:05.744Z,2.17
2018-03-17T21:25:35.441Z,2.57
2018-03-17T21:28:05.007Z,3.33
2018-03-17T21:30:35.001Z,4.43
2018-03-17T21:33:04.675Z,5.43
2018-03-17T21:35:35.139Z,3.83
2018-03-17T21:38:05.419Z,5.07
2018-03-17T21:40:35.544Z,4.50
2018-03-17T21:43:05.680Z,4.50
2018-03-17T21:45:35.422Z,2.67
2018-03-17T21:48:05.770Z,3.17
2018-03-17T21:50:35.385Z,4.53
2018-03-17T21:53:05.187Z,3.80
2018-03-17T21:55:35.749Z,4.33
2018-03-17T21:58:05.456Z,4.10
2018-03-17T22:00:35.030Z,4.97
2018-03-17T22:03:05.314Z,4.37
2018-03-17T22:05:35.499Z,6.20
2018-03-17T22:08:05.331Z,6.93
2018-03-17T22:10:34.795Z,7.50
2018-03-17T22:13:04.466Z,9.27
2018-03-17T22:15:34.139Z,4.43
2018-03-17T22:18:04.458Z,4.67
2018-03-17T22:20:34.460Z,2.93
2018-03-17T22:23:04.435Z,8.70
2018-03-17T22:25:36.119Z,7.03
2018-03-17T22:28:06.240Z,8.40
2018-03-17T22:30:37.289Z,9.07
2018-03-17T22:33:13.740Z,6.00
2018-03-17T22:35:45.649Z,9.27
2018-03-17T22:38:15.576Z,12.43
2018-03-17T22:40:45.380Z,9.90
2018-03-17T22:43:14.881Z,10.83
2018-03-17T22:45:45.154Z,10.43
2018-03-17T22:48:14.803Z,14.67
2018-03-17T22:50:44.641Z,11.80
2018-03-17T22:53:14.261Z,12.97
2018-03-17T22:55:43.759Z,19.90
2018-03-17T22:58:13.719Z,12.80
2018-03-17T23:00:44.015Z,11.10
2018-03-17T23:03:14.317Z,8.23
2018-03-17T23:05:49.115Z,13.90
2018-03-17T23:08:20.879Z,9.00
2018-03-17T23:10:50.412Z,10.93
2018-03-17T23:13:19.995Z,11.83
2018-03-17T23:15:49.671Z,8.83
2018-03-17T23:18:20.110Z,12.37
2018-03-17T23:20:50.436Z,13.53
2018-03-17T23:23:20.395Z,11.90
2018-03-17T23:25:49.914Z,14.40
2018-03-17T23:28:19.915Z,14.70
2018-03-17T23:30:50.058Z,13.63
2018-03-17T23:33:20.941Z,15.00
2018-03-17T23:35:51.909Z,14.67
2018-03-17T23:38:21.745Z,14.63
2018-03-17T23:40:51.277Z,16.53
2018-03-17T23:43:23.675Z,21.80
2018-03-17T23:45:53.365Z,17.60
2018-03-17T23:48:23.613Z,20.77
2018-03-17T23:50:53.564Z,17.97
2018-03-17T23:53:23.127Z,21.97
2018-03-17T23:55:53.094Z,21.43
2018-03-17T23:58:22.811Z,21.13
